sensor_id;sensor_type;location;lat;lon;timestamp;temperature;humidity
8269;DHT22;4174;48.304;16.364;2022-10-17T00:02:33;14.10;99.90
8269;DHT22;4174;48.304;16.364;2022-10-17T00:08:37;14.20;99.90
8269;DHT22;4174;48.304;16.364;2022-10-17T00:14:40;14.20;99.90
8269;DHT22;4174;48.304;16.364;2022-10-17T00:20:44;14.10;99.90
8269;DHT22;4174;48.304;16.364;2022-10-17T00:26:48;14.10;99.90
8269;DHT22;4174;48.304;16.364;2022-10-17T00:32:52;13.90;99.90
8269;DHT22;4174;48.304;16.364;2022-10-17T00:38:56;13.70;99.90
8269;DHT22;4174;48.304;16.364;2022-10-17T00:45:06;13.80;99.90
8269;DHT22;4174;48.304;16.364;2022-10-17T00:51:28;13.60;99.90
8269;DHT22;4174;48.304;16.364;2022-10-17T00:57:29;13.70;99.90
8269;DHT22;4174;48.304;16.364;2022-10-17T01:03:32;13.70;99.90
8269;DHT22;4174;48.304;16.364;2022-10-17T01:09:37;13.50;99.90
8269;DHT22;4174;48.304;16.364;2022-10-17T01:22:08;13.60;99.90
8269;DHT22;4174;48.304;16.364;2022-10-17T01:28:54;13.50;99.90
8269;DHT22;4174;48.304;16.364;2022-10-17T01:41:06;13.60;99.90
8269;DHT22;4174;48.304;16.364;2022-10-17T01:47:09;13.50;99.90
8269;DHT22;4174;48.304;16.364;2022-10-17T01:53:14;13.40;99.90
8269;DHT22;4174;48.304;16.364;2022-10-17T01:59:19;13.40;99.90
8269;DHT22;4174;48.304;16.364;2022-10-17T02:05:23;13.40;99.90
8269;DHT22;4174;48.304;16.364;2022-10-17T02:11:25;13.30;99.90
8269;DHT22;4174;48.304;16.364;2022-10-17T02:17:36;13.10;99.90
8269;DHT22;4174;48.304;16.364;2022-10-17T02:24:17;13.00;99.90
8269;DHT22;4174;48.304;16.364;2022-10-17T02:30:19;13.20;99.90
8269;DHT22;4174;48.304;16.364;2022-10-17T02:36:22;13.00;99.90
8269;DHT22;4174;48.304;16.364;2022-10-17T02:42:24;13.00;99.90
8269;DHT22;4174;48.304;16.364;2022-10-17T02:48:29;13.00;99.90
8269;DHT22;4174;48.304;16.364;2022-10-17T03:00:50;13.00;99.90
8269;DHT22;4174;48.304;16.364;2022-10-17T03:06:53;13.10;99.90
8269;DHT22;4174;48.304;16.364;2022-10-17T03:12:56;12.90;99.90
8269;DHT22;4174;48.304;16.364;2022-10-17T03:19:01;13.10;99.90
8269;DHT22;4174;48.304;16.364;2022-10-17T03:25:04;13.10;99.90
8269;DHT22;4174;48.304;16.364;2022-10-17T03:31:09;13.10;99.90
8269;DHT22;4174;48.304;16.364;2022-10-17T03:37:12;13.00;99.90
8269;DHT22;4174;48.304;16.364;2022-10-17T03:43:16;13.20;99.90
8269;DHT22;4174;48.304;16.364;2022-10-17T03:49:21;13.30;99.90
8269;DHT22;4174;48.304;16.364;2022-10-17T03:55:24;13.30;99.90
8269;DHT22;4174;48.304;16.364;2022-10-17T04:01:28;13.40;99.90
8269;DHT22;4174;48.304;16.364;2022-10-17T04:07:32;13.30;99.90
8269;DHT22;4174;48.304;16.364;2022-10-17T04:13:36;13.20;99.90
8269;DHT22;4174;48.304;16.364;2022-10-17T04:19:39;13.20;99.90
8269;DHT22;4174;48.304;16.364;2022-10-17T04:25:44;13.00;99.90
8269;DHT22;4174;48.304;16.364;2022-10-17T04:31:48;13.00;99.90
8269;DHT22;4174;48.304;16.364;2022-10-17T04:37:52;13.00;99.90
8269;DHT22;4174;48.304;16.364;2022-10-17T04:43:55;13.00;99.90
8269;DHT22;4174;48.304;16.364;2022-10-17T04:49:59;13.10;99.90
8269;DHT22;4174;48.304;16.364;2022-10-17T04:56:12;12.90;99.90
8269;DHT22;4174;48.304;16.364;2022-10-17T05:02:15;12.70;99.90
8269;DHT22;4174;48.304;16.364;2022-10-17T05:08:19;12.70;99.90
8269;DHT22;4174;48.304;16.364;2022-10-17T05:14:23;12.40;99.90
8269;DHT22;4174;48.304;16.364;2022-10-17T05:20:27;12.40;99.90
8269;DHT22;4174;48.304;16.364;2022-10-17T05:26:30;12.40;99.90
8269;DHT22;4174;48.304;16.364;2022-10-17T05:32:35;12.50;99.90
8269;DHT22;4174;48.304;16.364;2022-10-17T05:38:40;12.30;99.90
8269;DHT22;4174;48.304;16.364;2022-10-17T05:44:44;12.30;99.90
8269;DHT22;4174;48.304;16.364;2022-10-17T05:50:48;12.10;99.90
8269;DHT22;4174;48.304;16.364;2022-10-17T05:56:52;12.10;99.90
8269;DHT22;4174;48.304;16.364;2022-10-17T06:02:54;12.30;99.90
8269;DHT22;4174;48.304;16.364;2022-10-17T06:08:58;12.40;99.90
8269;DHT22;4174;48.304;16.364;2022-10-17T06:15:04;12.50;99.90
8269;DHT22;4174;48.304;16.364;2022-10-17T06:21:09;12.50;99.90
8269;DHT22;4174;48.304;16.364;2022-10-17T06:27:11;12.60;99.90
8269;DHT22;4174;48.304;16.364;2022-10-17T06:33:15;13.00;99.90
8269;DHT22;4174;48.304;16.364;2022-10-17T06:39:19;13.10;99.90
8269;DHT22;4174;48.304;16.364;2022-10-17T06:45:23;13.20;99.90
8269;DHT22;4174;48.304;16.364;2022-10-17T06:51:27;13.90;99.90
8269;DHT22;4174;48.304;16.364;2022-10-17T06:57:31;13.90;99.90
8269;DHT22;4174;48.304;16.364;2022-10-17T07:03:35;14.10;99.90
8269;DHT22;4174;48.304;16.364;2022-10-17T07:09:38;14.80;99.90
8269;DHT22;4174;48.304;16.364;2022-10-17T07:15:42;14.70;99.90
8269;DHT22;4174;48.304;16.364;2022-10-17T07:21:46;15.00;99.90
8269;DHT22;4174;48.304;16.364;2022-10-17T07:27:50;15.00;99.90
8269;DHT22;4174;48.304;16.364;2022-10-17T07:33:52;15.30;99.90
8269;DHT22;4174;48.304;16.364;2022-10-17T07:39:56;15.70;99.90
8269;DHT22;4174;48.304;16.364;2022-10-17T07:46:00;16.20;99.90
8269;DHT22;4174;48.304;16.364;2022-10-17T07:52:03;16.70;99.90
8269;DHT22;4174;48.304;16.364;2022-10-17T07:58:08;17.00;99.90
8269;DHT22;4174;48.304;16.364;2022-10-17T08:04:12;17.50;99.90
8269;DHT22;4174;48.304;16.364;2022-10-17T08:10:16;17.90;99.90
8269;DHT22;4174;48.304;16.364;2022-10-17T08:16:20;18.20;99.90
8269;DHT22;4174;48.304;16.364;2022-10-17T08:22:24;17.80;99.90
8269;DHT22;4174;48.304;16.364;2022-10-17T08:28:28;19.30;99.90
8269;DHT22;4174;48.304;16.364;2022-10-17T08:34:32;19.20;99.90
8269;DHT22;4174;48.304;16.364;2022-10-17T08:40:35;20.10;99.90
8269;DHT22;4174;48.304;16.364;2022-10-17T08:46:41;20.80;99.90
8269;DHT22;4174;48.304;16.364;2022-10-17T08:52:47;20.70;99.90
8269;DHT22;4174;48.304;16.364;2022-10-17T08:58:49;21.10;99.90
8269;DHT22;4174;48.304;16.364;2022-10-17T09:17:44;22.60;99.90
8269;DHT22;4174;48.304;16.364;2022-10-17T09:23:48;22.60;99.90
8269;DHT22;4174;48.304;16.364;2022-10-17T09:29:53;22.30;99.90
8269;DHT22;4174;48.304;16.364;2022-10-17T09:35:53;22.40;99.90
8269;DHT22;4174;48.304;16.364;2022-10-17T09:41:57;22.00;99.90
8269;DHT22;4174;48.304;16.364;2022-10-17T09:48:07;21.10;99.90
8269;DHT22;4174;48.304;16.364;2022-10-17T09:54:27;21.70;99.90
8269;DHT22;4174;48.304;16.364;2022-10-17T10:00:30;21.60;99.90
8269;DHT22;4174;48.304;16.364;2022-10-17T10:06:33;22.00;99.90
8269;DHT22;4174;48.304;16.364;2022-10-17T10:12:37;22.00;99.90
8269;DHT22;4174;48.304;16.364;2022-10-17T10:18:39;22.50;99.90
8269;DHT22;4174;48.304;16.364;2022-10-17T10:24:43;22.50;99.90
8269;DHT22;4174;48.304;16.364;2022-10-17T10:30:48;22.80;99.90
8269;DHT22;4174;48.304;16.364;2022-10-17T10:36:55;22.60;99.90
8269;DHT22;4174;48.304;16.364;2022-10-17T10:42:58;22.90;99.90
8269;DHT22;4174;48.304;16.364;2022-10-17T10:49:00;23.50;99.90
8269;DHT22;4174;48.304;16.364;2022-10-17T10:55:19;23.50;99.90
8269;DHT22;4174;48.304;16.364;2022-10-17T11:08:10;23.80;99.90
8269;DHT22;4174;48.304;16.364;2022-10-17T11:14:13;24.20;99.90
8269;DHT22;4174;48.304;16.364;2022-10-17T11:20:18;23.80;99.90
8269;DHT22;4174;48.304;16.364;2022-10-17T11:26:25;23.80;99.90
8269;DHT22;4174;48.304;16.364;2022-10-17T11:38:59;24.20;99.90
8269;DHT22;4174;48.304;16.364;2022-10-17T11:45:04;24.10;99.90
8269;DHT22;4174;48.304;16.364;2022-10-17T11:51:08;24.50;99.90
8269;DHT22;4174;48.304;16.364;2022-10-17T11:57:34;24.20;99.90
8269;DHT22;4174;48.304;16.364;2022-10-17T12:03:57;24.20;99.90
8269;DHT22;4174;48.304;16.364;2022-10-17T12:10:14;24.40;99.90
8269;DHT22;4174;48.304;16.364;2022-10-17T12:16:41;24.60;99.90
8269;DHT22;4174;48.304;16.364;2022-10-17T12:22:47;24.10;99.90
8269;DHT22;4174;48.304;16.364;2022-10-17T12:28:49;23.90;99.90
8269;DHT22;4174;48.304;16.364;2022-10-17T12:34:53;23.40;99.90
8269;DHT22;4174;48.304;16.364;2022-10-17T12:40:56;24.20;99.90
8269;DHT22;4174;48.304;16.364;2022-10-17T12:53:57;24.20;99.90
8269;DHT22;4174;48.304;16.364;2022-10-17T13:00:03;24.20;99.90
8269;DHT22;4174;48.304;16.364;2022-10-17T13:06:06;23.80;99.90
8269;DHT22;4174;48.304;16.364;2022-10-17T13:12:11;23.80;99.90
8269;DHT22;4174;48.304;16.364;2022-10-17T13:18:23;24.10;99.90
8269;DHT22;4174;48.304;16.364;2022-10-17T13:24:30;24.10;99.90
8269;DHT22;4174;48.304;16.364;2022-10-17T13:30:33;23.80;99.90
8269;DHT22;4174;48.304;16.364;2022-10-17T13:36:36;23.80;99.90
8269;DHT22;4174;48.304;16.364;2022-10-17T13:42:40;24.20;99.90
8269;DHT22;4174;48.304;16.364;2022-10-17T13:48:43;24.50;99.90
8269;DHT22;4174;48.304;16.364;2022-10-17T13:54:48;23.80;99.90
8269;DHT22;4174;48.304;16.364;2022-10-17T14:00:50;24.10;99.90
8269;DHT22;4174;48.304;16.364;2022-10-17T14:06:52;23.90;99.90
8269;DHT22;4174;48.304;16.364;2022-10-17T14:12:57;23.60;99.90
8269;DHT22;4174;48.304;16.364;2022-10-17T14:18:59;23.60;99.90
8269;DHT22;4174;48.304;16.364;2022-10-17T14:25:25;23.20;99.90
8269;DHT22;4174;48.304;16.364;2022-10-17T14:31:19;23.00;99.90
8269;DHT22;4174;48.304;16.364;2022-10-17T14:43:38;22.80;99.90
8269;DHT22;4174;48.304;16.364;2022-10-17T14:49:41;22.70;99.90
8269;DHT22;4174;48.304;16.364;2022-10-17T14:55:54;22.60;99.90
8269;DHT22;4174;48.304;16.364;2022-10-17T15:01:57;22.50;99.90
8269;DHT22;4174;48.304;16.364;2022-10-17T15:08:01;22.10;99.90
8269;DHT22;4174;48.304;16.364;2022-10-17T15:14:05;22.30;99.90
8269;DHT22;4174;48.304;16.364;2022-10-17T15:20:11;21.90;99.90
8269;DHT22;4174;48.304;16.364;2022-10-17T15:26:22;21.80;99.90
8269;DHT22;4174;48.304;16.364;2022-10-17T15:32:26;21.70;99.90
8269;DHT22;4174;48.304;16.364;2022-10-17T15:38:30;21.60;99.90
8269;DHT22;4174;48.304;16.364;2022-10-17T15:44:33;21.60;99.90
8269;DHT22;4174;48.304;16.364;2022-10-17T15:50:37;21.50;99.90
8269;DHT22;4174;48.304;16.364;2022-10-17T15:56:40;21.30;99.90
8269;DHT22;4174;48.304;16.364;2022-10-17T16:02:44;21.00;99.90
8269;DHT22;4174;48.304;16.364;2022-10-17T16:08:47;20.90;99.90
8269;DHT22;4174;48.304;16.364;2022-10-17T16:14:50;20.90;99.90
8269;DHT22;4174;48.304;16.364;2022-10-17T16:20:54;20.90;99.90
8269;DHT22;4174;48.304;16.364;2022-10-17T16:26:57;20.70;99.90
8269;DHT22;4174;48.304;16.364;2022-10-17T16:33:01;20.70;99.90
8269;DHT22;4174;48.304;16.364;2022-10-17T16:39:05;20.50;99.90
8269;DHT22;4174;48.304;16.364;2022-10-17T16:45:09;20.50;99.90
8269;DHT22;4174;48.304;16.364;2022-10-17T16:51:20;20.30;99.90
8269;DHT22;4174;48.304;16.364;2022-10-17T16:57:23;20.20;99.90
8269;DHT22;4174;48.304;16.364;2022-10-17T17:03:27;20.20;99.90
8269;DHT22;4174;48.304;16.364;2022-10-17T17:09:30;20.10;99.90
8269;DHT22;4174;48.304;16.364;2022-10-17T17:15:33;20.10;99.90
8269;DHT22;4174;48.304;16.364;2022-10-17T17:21:39;19.90;99.90
8269;DHT22;4174;48.304;16.364;2022-10-17T17:27:42;19.80;99.90
8269;DHT22;4174;48.304;16.364;2022-10-17T17:33:45;19.80;99.90
8269;DHT22;4174;48.304;16.364;2022-10-17T17:39:49;19.70;99.90
8269;DHT22;4174;48.304;16.364;2022-10-17T17:45:52;19.60;99.90
8269;DHT22;4174;48.304;16.364;2022-10-17T17:51:56;19.60;99.90
8269;DHT22;4174;48.304;16.364;2022-10-17T17:58:00;19.50;99.90
8269;DHT22;4174;48.304;16.364;2022-10-17T18:04:03;19.40;99.90
8269;DHT22;4174;48.304;16.364;2022-10-17T18:10:07;19.30;99.90
8269;DHT22;4174;48.304;16.364;2022-10-17T18:16:10;19.20;99.90
8269;DHT22;4174;48.304;16.364;2022-10-17T18:22:14;19.00;99.90
8269;DHT22;4174;48.304;16.364;2022-10-17T18:28:17;19.00;99.90
8269;DHT22;4174;48.304;16.364;2022-10-17T18:34:21;19.00;99.90
8269;DHT22;4174;48.304;16.364;2022-10-17T18:40:26;18.80;99.90
8269;DHT22;4174;48.304;16.364;2022-10-17T18:46:30;18.70;99.90
8269;DHT22;4174;48.304;16.364;2022-10-17T18:52:33;18.70;99.90
8269;DHT22;4174;48.304;16.364;2022-10-17T18:58:38;18.60;99.90
8269;DHT22;4174;48.304;16.364;2022-10-17T19:04:41;18.60;99.90
8269;DHT22;4174;48.304;16.364;2022-10-17T19:10:46;18.60;99.90
8269;DHT22;4174;48.304;16.364;2022-10-17T19:16:50;18.70;99.90
8269;DHT22;4174;48.304;16.364;2022-10-17T19:22:55;18.70;99.90
8269;DHT22;4174;48.304;16.364;2022-10-17T19:28:58;18.50;99.90
8269;DHT22;4174;48.304;16.364;2022-10-17T19:35:02;18.60;99.90
8269;DHT22;4174;48.304;16.364;2022-10-17T19:41:09;18.40;99.90
8269;DHT22;4174;48.304;16.364;2022-10-17T19:47:11;18.40;99.90
8269;DHT22;4174;48.304;16.364;2022-10-17T19:53:15;18.50;99.90
8269;DHT22;4174;48.304;16.364;2022-10-17T19:59:19;18.50;99.90
8269;DHT22;4174;48.304;16.364;2022-10-17T20:05:23;18.50;99.90
8269;DHT22;4174;48.304;16.364;2022-10-17T20:11:27;18.40;99.90
8269;DHT22;4174;48.304;16.364;2022-10-17T20:17:30;18.30;99.90
8269;DHT22;4174;48.304;16.364;2022-10-17T20:23:34;18.40;99.90
8269;DHT22;4174;48.304;16.364;2022-10-17T20:29:39;18.30;99.90
8269;DHT22;4174;48.304;16.364;2022-10-17T20:35:43;18.30;99.90
8269;DHT22;4174;48.304;16.364;2022-10-17T20:41:47;18.30;99.90
8269;DHT22;4174;48.304;16.364;2022-10-17T20:47:51;18.30;99.90
8269;DHT22;4174;48.304;16.364;2022-10-17T20:53:55;18.30;99.90
8269;DHT22;4174;48.304;16.364;2022-10-17T21:00:00;18.00;99.90
8269;DHT22;4174;48.304;16.364;2022-10-17T21:06:03;18.00;99.90
8269;DHT22;4174;48.304;16.364;2022-10-17T21:12:09;17.30;99.90
8269;DHT22;4174;48.304;16.364;2022-10-17T21:18:12;17.30;99.90
8269;DHT22;4174;48.304;16.364;2022-10-17T21:24:17;17.10;99.90
8269;DHT22;4174;48.304;16.364;2022-10-17T21:30:20;16.80;99.90
8269;DHT22;4174;48.304;16.364;2022-10-17T21:36:24;16.20;99.90
8269;DHT22;4174;48.304;16.364;2022-10-17T21:42:27;16.20;99.90
8269;DHT22;4174;48.304;16.364;2022-10-17T21:48:31;16.30;99.90
8269;DHT22;4174;48.304;16.364;2022-10-17T21:54:34;16.20;99.90
8269;DHT22;4174;48.304;16.364;2022-10-17T22:00:38;16.30;99.90
8269;DHT22;4174;48.304;16.364;2022-10-17T22:06:43;16.20;99.90
8269;DHT22;4174;48.304;16.364;2022-10-17T22:12:46;16.20;99.90
8269;DHT22;4174;48.304;16.364;2022-10-17T22:18:51;16.20;99.90
8269;DHT22;4174;48.304;16.364;2022-10-17T22:24:54;16.20;99.90
8269;DHT22;4174;48.304;16.364;2022-10-17T22:30:58;16.20;99.90
8269;DHT22;4174;48.304;16.364;2022-10-17T22:37:01;16.30;99.90
8269;DHT22;4174;48.304;16.364;2022-10-17T22:43:05;16.30;99.90
8269;DHT22;4174;48.304;16.364;2022-10-17T22:49:09;16.00;99.90
8269;DHT22;4174;48.304;16.364;2022-10-17T22:55:13;16.00;99.90
8269;DHT22;4174;48.304;16.364;2022-10-17T23:01:19;15.90;99.90
8269;DHT22;4174;48.304;16.364;2022-10-17T23:07:21;15.80;99.90
8269;DHT22;4174;48.304;16.364;2022-10-17T23:13:25;15.80;99.90
8269;DHT22;4174;48.304;16.364;2022-10-17T23:19:29;15.60;99.90
8269;DHT22;4174;48.304;16.364;2022-10-17T23:25:33;15.60;99.90
8269;DHT22;4174;48.304;16.364;2022-10-17T23:31:35;15.40;99.90
8269;DHT22;4174;48.304;16.364;2022-10-17T23:37:39;15.40;99.90
8269;DHT22;4174;48.304;16.364;2022-10-17T23:43:42;15.50;99.90
8269;DHT22;4174;48.304;16.364;2022-10-17T23:49:46;15.60;99.90
8269;DHT22;4174;48.304;16.364;2022-10-17T23:55:49;15.40;99.90
